createdAt,value
2023-11-07T12:01:48.399Z,10.70
2023-11-07T12:04:30.463Z,10.80
2023-11-07T12:07:31.646Z,10.80
2023-11-07T12:10:09.317Z,10.90
2023-11-07T12:12:38.574Z,10.90
2023-11-07T12:15:08.403Z,11.00
2023-11-07T12:17:48.644Z,11.10
2023-11-07T12:20:18.462Z,11.20
2023-11-07T12:22:48.077Z,11.20
2023-11-07T12:25:18.506Z,11.30
2023-11-07T12:28:03.116Z,11.40
2023-11-07T12:30:31.326Z,11.40
2023-11-07T12:33:05.757Z,11.30
2023-11-07T12:35:33.998Z,11.30
2023-11-07T12:38:04.864Z,11.20
2023-11-07T12:40:34.586Z,11.20
2023-11-07T12:43:04.864Z,11.30
2023-11-07T12:45:33.399Z,11.40
2023-11-07T12:48:06.205Z,11.40
2023-11-07T12:50:35.641Z,11.50
2023-11-07T12:53:06.340Z,11.40
2023-11-07T12:55:36.902Z,11.30
2023-11-07T12:58:06.167Z,11.10
2023-11-07T13:00:55.570Z,11.00
2023-11-07T13:03:26.443Z,10.90
2023-11-07T13:05:58.731Z,10.80
2023-11-07T13:08:31.091Z,10.80
2023-11-07T13:11:13.546Z,10.70
2023-11-07T13:13:42.824Z,10.50
2023-11-07T13:16:10.874Z,10.40
2023-11-07T13:18:47.799Z,10.50
2023-11-07T13:21:18.031Z,10.80
2023-11-07T13:23:46.410Z,10.90
2023-11-07T13:26:15.495Z,11.00
2023-11-07T13:28:44.703Z,11.20
2023-11-07T13:31:16.580Z,11.20
2023-11-07T13:33:46.881Z,11.20
2023-11-07T13:36:16.701Z,11.30
2023-11-07T13:38:46.904Z,11.40
2023-11-07T13:41:14.922Z,11.50
2023-11-07T13:43:42.789Z,11.50
2023-11-07T13:46:10.764Z,11.50
2023-11-07T13:48:38.910Z,11.60
2023-11-07T13:51:08.919Z,11.60
2023-11-07T13:53:37.205Z,11.60
2023-11-07T13:56:06.481Z,11.50
2023-11-07T13:58:36.315Z,11.40
2023-11-07T14:01:04.244Z,11.30
2023-11-07T14:03:32.255Z,11.10
2023-11-07T14:06:00.192Z,11.00
2023-11-07T14:08:29.413Z,10.90
2023-11-07T14:10:57.490Z,10.90
2023-11-07T14:13:25.476Z,10.80
2023-11-07T14:15:53.740Z,10.40
2023-11-07T14:18:27.134Z,10.10
2023-11-07T14:20:58.760Z,9.80
2023-11-07T14:23:27.169Z,9.80
2023-11-07T14:25:57.318Z,9.80
2023-11-07T14:28:25.539Z,9.70
2023-11-07T14:30:53.468Z,9.60
2023-11-07T14:33:21.931Z,9.50
2023-11-07T14:35:50.037Z,9.40
2023-11-07T14:38:22.254Z,9.40
2023-11-07T14:40:50.420Z,9.40
2023-11-07T14:43:20.018Z,9.40
2023-11-07T14:45:47.905Z,9.50
2023-11-07T14:48:16.539Z,9.50
2023-11-07T14:50:44.888Z,9.50
2023-11-07T14:53:15.826Z,9.40
2023-11-07T14:55:44.172Z,9.40
2023-11-07T14:58:12.232Z,9.30
2023-11-07T15:00:42.403Z,9.20
2023-11-07T15:03:12.380Z,9.20
2023-11-07T15:05:43.215Z,9.10
2023-11-07T15:08:11.702Z,9.10
2023-11-07T15:10:40.168Z,9.10
2023-11-07T15:13:09.036Z,9.00
2023-11-07T15:15:37.203Z,9.00
2023-11-07T15:18:06.936Z,9.00
2023-11-07T15:20:35.061Z,9.00
2023-11-07T15:23:03.783Z,9.00
2023-11-07T15:25:34.869Z,9.00
2023-11-07T15:28:04.575Z,9.10
2023-11-07T15:30:33.229Z,9.10
2023-11-07T15:33:02.707Z,9.10
2023-11-07T15:35:37.655Z,9.20
2023-11-07T15:38:08.425Z,9.20
2023-11-07T15:40:40.325Z,9.20
2023-11-07T15:43:09.309Z,9.20
2023-11-07T15:45:37.345Z,9.20
2023-11-07T15:48:11.310Z,9.10
2023-11-07T15:50:43.418Z,9.10
2023-11-07T15:53:12.476Z,9.20
2023-11-07T15:55:42.630Z,9.20
2023-11-07T15:58:11.283Z,9.20
2023-11-07T16:00:39.768Z,9.20
2023-11-07T16:03:07.876Z,9.30
2023-11-07T16:05:38.304Z,9.30
2023-11-07T16:08:08.944Z,9.40
2023-11-07T16:10:37.776Z,9.30
2023-11-07T16:13:06.508Z,9.30
2023-11-07T16:15:35.089Z,9.30
2023-11-07T16:18:03.868Z,9.30
2023-11-07T16:20:32.112Z,9.30
2023-11-07T16:23:00.630Z,9.30
2023-11-07T16:25:29.946Z,9.30
2023-11-07T16:27:58.055Z,9.30
2023-11-07T16:30:25.979Z,9.30
2023-11-07T16:32:54.102Z,9.30
2023-11-07T16:35:22.149Z,9.30
2023-11-07T16:37:52.723Z,9.30
2023-11-07T16:40:20.754Z,9.40
2023-11-07T16:42:52.912Z,9.40
2023-11-07T16:45:21.364Z,9.40
2023-11-07T16:47:50.746Z,9.40
2023-11-07T16:50:19.231Z,9.40
2023-11-07T16:52:47.110Z,9.50
2023-11-07T16:55:15.644Z,9.50
2023-11-07T16:57:45.742Z,9.50
2023-11-07T17:00:19.190Z,9.50
2023-11-07T17:02:47.675Z,9.50
2023-11-07T17:05:16.431Z,9.60
2023-11-07T17:07:45.162Z,9.50
2023-11-07T17:10:13.084Z,9.50
2023-11-07T17:12:41.141Z,9.50
2023-11-07T17:15:12.668Z,9.50
2023-11-07T17:17:42.487Z,9.50
2023-11-07T17:20:13.412Z,9.50
2023-11-07T17:22:41.480Z,9.60
2023-11-07T17:25:10.312Z,9.60
2023-11-07T17:27:38.278Z,9.50
2023-11-07T17:30:08.536Z,9.50
2023-11-07T17:32:36.666Z,9.50
2023-11-07T17:35:06.799Z,9.40
2023-11-07T17:37:34.968Z,9.40
2023-11-07T17:40:02.920Z,9.40
2023-11-07T17:42:30.796Z,9.40
2023-11-07T17:44:58.827Z,9.40
2023-11-07T17:47:29.711Z,9.50
2023-11-07T17:49:58.428Z,9.50
2023-11-07T17:52:27.829Z,9.40
2023-11-07T17:54:55.860Z,9.40
2023-11-07T17:57:23.873Z,9.30
2023-11-07T17:59:53.878Z,9.30
2023-11-07T18:02:23.926Z,9.30
2023-11-07T18:04:52.319Z,9.30
2023-11-07T18:07:21.199Z,9.30
2023-11-07T18:09:51.530Z,9.30
2023-11-07T18:12:20.661Z,9.20
2023-11-07T18:14:48.759Z,9.20
2023-11-07T18:17:16.930Z,9.20
2023-11-07T18:19:44.848Z,9.10
2023-11-07T18:22:13.255Z,9.10
2023-11-07T18:24:41.481Z,9.00
2023-11-07T18:27:10.777Z,8.90
2023-11-07T18:29:38.666Z,8.80
2023-11-07T18:32:08.005Z,8.80
2023-11-07T18:34:36.584Z,8.80
2023-11-07T18:37:06.138Z,8.80
2023-11-07T18:39:36.779Z,8.80
2023-11-07T18:42:05.596Z,8.80
2023-11-07T18:44:36.785Z,8.80
2023-11-07T18:47:08.278Z,8.80
2023-11-07T18:49:36.513Z,8.80
2023-11-07T18:52:04.680Z,8.80
2023-11-07T18:54:32.687Z,8.70
2023-11-07T18:57:00.776Z,8.70
2023-11-07T18:59:36.328Z,8.70
2023-11-07T19:02:08.272Z,8.60
2023-11-07T19:04:38.358Z,8.60
2023-11-07T19:07:07.142Z,8.50
2023-11-07T19:09:35.908Z,8.50
2023-11-07T19:12:04.082Z,8.50
2023-11-07T19:14:32.309Z,8.50
2023-11-07T19:17:01.559Z,8.50
2023-11-07T19:19:30.971Z,8.50
2023-11-07T19:21:59.647Z,8.60
2023-11-07T19:24:28.871Z,8.60
2023-11-07T19:26:56.856Z,8.50
2023-11-07T19:29:25.593Z,8.40
2023-11-07T19:31:55.403Z,8.30
2023-11-07T19:34:25.509Z,8.30
2023-11-07T19:36:56.143Z,8.20
2023-11-07T19:39:25.911Z,8.20
2023-11-07T19:41:55.289Z,8.20
2023-11-07T19:44:23.475Z,8.10
2023-11-07T19:46:51.629Z,8.10
2023-11-07T19:49:20.229Z,8.00
2023-11-07T19:51:48.172Z,8.00
2023-11-07T19:54:17.722Z,7.90
2023-11-07T19:56:46.025Z,7.90
2023-11-07T19:59:14.689Z,8.00
2023-11-07T20:01:42.718Z,7.90
2023-11-07T20:04:10.837Z,7.90
2023-11-07T20:06:38.873Z,7.90
2023-11-07T20:09:07.157Z,7.80
2023-11-07T20:11:38.228Z,7.80
2023-11-07T20:14:08.336Z,7.80
2023-11-07T20:16:36.521Z,7.80
2023-11-07T20:19:04.601Z,7.80
2023-11-07T20:21:32.597Z,7.90
2023-11-07T20:24:00.490Z,8.00
2023-11-07T20:26:28.406Z,8.00
2023-11-07T20:28:57.818Z,8.00
2023-11-07T20:31:25.802Z,8.00
2023-11-07T20:33:53.934Z,8.00
2023-11-07T20:36:21.915Z,8.00
2023-11-07T20:38:52.033Z,8.00
2023-11-07T20:41:21.541Z,8.00
2023-11-07T20:43:51.152Z,7.90
2023-11-07T20:46:32.902Z,7.80
2023-11-07T20:49:05.166Z,7.70
2023-11-07T20:51:35.515Z,7.70
2023-11-07T20:54:11.032Z,7.70
2023-11-07T20:56:39.255Z,7.70
2023-11-07T20:59:08.534Z,7.70
2023-11-07T21:01:38.123Z,7.60
2023-11-07T21:04:06.312Z,7.70
2023-11-07T21:06:34.295Z,7.60
2023-11-07T21:09:08.847Z,7.60
2023-11-07T21:11:37.049Z,7.70
2023-11-07T21:14:05.800Z,7.70
2023-11-07T21:16:35.337Z,7.80
2023-11-07T21:19:05.023Z,7.80
2023-11-07T21:21:33.200Z,7.80
2023-11-07T21:24:01.714Z,7.70
2023-11-07T21:26:29.849Z,7.70
2023-11-07T21:28:58.104Z,7.70
2023-11-07T21:31:26.108Z,7.70
2023-11-07T21:33:54.160Z,7.70
2023-11-07T21:36:23.939Z,7.60
2023-11-07T21:38:51.931Z,7.70
2023-11-07T21:41:20.040Z,7.70
2023-11-07T21:43:49.067Z,7.80
2023-11-07T21:46:17.232Z,7.80
2023-11-07T21:48:46.623Z,7.80
2023-11-07T21:51:14.697Z,7.80
2023-11-07T21:53:44.053Z,7.80
2023-11-07T21:56:27.375Z,7.80
2023-11-07T21:58:55.613Z,7.80
2023-11-07T22:01:25.705Z,7.80
2023-11-07T22:03:55.716Z,7.80
2023-11-07T22:06:23.680Z,7.80
2023-11-07T22:08:53.437Z,7.80
2023-11-07T22:11:22.198Z,7.80
2023-11-07T22:13:50.170Z,7.80
2023-11-07T22:16:19.091Z,7.70
2023-11-07T22:18:48.952Z,7.70
2023-11-07T22:21:18.931Z,7.80
2023-11-07T22:23:47.318Z,7.80
2023-11-07T22:26:16.599Z,7.80
2023-11-07T22:28:45.225Z,7.80
2023-11-07T22:31:13.104Z,7.90
2023-11-07T22:33:41.077Z,7.80
2023-11-07T22:36:09.665Z,7.90
2023-11-07T22:38:38.738Z,7.90
2023-11-07T22:41:07.779Z,7.90
2023-11-07T22:43:39.100Z,7.90
2023-11-07T22:46:07.060Z,7.90
2023-11-07T22:48:57.660Z,7.90
2023-11-07T22:51:25.831Z,8.00
2023-11-07T22:53:53.776Z,8.00
2023-11-07T22:56:22.904Z,8.10
2023-11-07T22:58:52.217Z,8.20
2023-11-07T23:01:38.265Z,8.20
2023-11-07T23:04:07.126Z,8.20
2023-11-07T23:07:23.275Z,8.30
2023-11-07T23:09:51.372Z,8.30
2023-11-07T23:12:20.901Z,8.40
2023-11-07T23:14:50.441Z,8.30
2023-11-07T23:17:18.760Z,8.40
2023-11-07T23:19:47.016Z,8.40
2023-11-07T23:22:15.603Z,8.40
2023-11-07T23:24:48.143Z,8.40
2023-11-07T23:27:18.070Z,8.40
2023-11-07T23:29:46.073Z,8.40
2023-11-07T23:32:19.273Z,8.40
2023-11-07T23:34:47.305Z,8.40
2023-11-07T23:37:15.265Z,8.30
2023-11-07T23:46:30.310Z,8.30
